sensor_id;sensor_type;location;lat;lon;timestamp;P1;durP1;ratioP1;P2;durP2;ratioP2
23754;SDS011;12057;52.042;6.830;2023-02-04T00:02:13;50.73;;;6.50;;
23754;SDS011;12057;52.042;6.830;2023-02-04T00:07:14;56.87;;;7.33;;
23754;SDS011;12057;52.042;6.830;2023-02-04T00:12:17;48.05;;;7.38;;
23754;SDS011;12057;52.042;6.830;2023-02-04T00:17:18;66.77;;;7.43;;
23754;SDS011;12057;52.042;6.830;2023-02-04T00:22:18;57.07;;;6.67;;
23754;SDS011;12057;52.042;6.830;2023-02-04T00:27:20;74.05;;;6.07;;
23754;SDS011;12057;52.042;6.830;2023-02-04T00:32:20;62.67;;;7.83;;
23754;SDS011;12057;52.042;6.830;2023-02-04T00:37:21;59.87;;;9.33;;
23754;SDS011;12057;52.042;6.830;2023-02-04T00:42:22;76.47;;;12.93;;
23754;SDS011;12057;52.042;6.830;2023-02-04T00:47:23;63.50;;;9.73;;
23754;SDS011;12057;52.042;6.830;2023-02-04T00:52:24;63.67;;;8.97;;
23754;SDS011;12057;52.042;6.830;2023-02-04T00:57:24;70.97;;;6.87;;
23754;SDS011;12057;52.042;6.830;2023-02-04T01:02:25;70.27;;;6.47;;
23754;SDS011;12057;52.042;6.830;2023-02-04T01:07:26;73.27;;;8.10;;
23754;SDS011;12057;52.042;6.830;2023-02-04T01:12:27;59.47;;;6.10;;
23754;SDS011;12057;52.042;6.830;2023-02-04T01:17:28;70.53;;;6.17;;
23754;SDS011;12057;52.042;6.830;2023-02-04T01:22:28;51.03;;;5.77;;
23754;SDS011;12057;52.042;6.830;2023-02-04T01:27:29;47.87;;;5.37;;
23754;SDS011;12057;52.042;6.830;2023-02-04T01:32:30;50.97;;;5.00;;
23754;SDS011;12057;52.042;6.830;2023-02-04T01:37:31;67.47;;;7.07;;
23754;SDS011;12057;52.042;6.830;2023-02-04T01:42:31;57.13;;;6.63;;
23754;SDS011;12057;52.042;6.830;2023-02-04T01:47:32;65.20;;;6.70;;
23754;SDS011;12057;52.042;6.830;2023-02-04T01:57:36;47.92;;;6.18;;
23754;SDS011;12057;52.042;6.830;2023-02-04T02:02:37;59.20;;;5.83;;
23754;SDS011;12057;52.042;6.830;2023-02-04T02:07:50;66.80;;;6.80;;
23754;SDS011;12057;52.042;6.830;2023-02-04T02:12:52;62.97;;;5.25;;
23754;SDS011;12057;52.042;6.830;2023-02-04T02:17:54;61.83;;;6.05;;
23754;SDS011;12057;52.042;6.830;2023-02-04T02:28:17;48.63;;;7.40;;
23754;SDS011;12057;52.042;6.830;2023-02-04T02:33:21;41.53;;;5.75;;
23754;SDS011;12057;52.042;6.830;2023-02-04T02:38:22;50.33;;;5.23;;
23754;SDS011;12057;52.042;6.830;2023-02-04T02:43:23;51.57;;;6.03;;
23754;SDS011;12057;52.042;6.830;2023-02-04T02:48:26;53.97;;;6.63;;
23754;SDS011;12057;52.042;6.830;2023-02-04T02:53:30;66.27;;;6.17;;
23754;SDS011;12057;52.042;6.830;2023-02-04T02:58:32;67.07;;;7.72;;
23754;SDS011;12057;52.042;6.830;2023-02-04T03:03:37;68.68;;;6.78;;
23754;SDS011;12057;52.042;6.830;2023-02-04T03:08:41;58.85;;;5.90;;
23754;SDS011;12057;52.042;6.830;2023-02-04T03:13:43;58.10;;;7.35;;
23754;SDS011;12057;52.042;6.830;2023-02-04T03:18:44;55.40;;;5.33;;
23754;SDS011;12057;52.042;6.830;2023-02-04T03:23:45;84.60;;;6.37;;
23754;SDS011;12057;52.042;6.830;2023-02-04T03:28:45;71.90;;;7.47;;
23754;SDS011;12057;52.042;6.830;2023-02-04T03:33:46;70.70;;;6.30;;
23754;SDS011;12057;52.042;6.830;2023-02-04T03:38:47;58.90;;;5.37;;
23754;SDS011;12057;52.042;6.830;2023-02-04T03:43:48;85.87;;;6.43;;
23754;SDS011;12057;52.042;6.830;2023-02-04T03:48:49;45.63;;;5.60;;
23754;SDS011;12057;52.042;6.830;2023-02-04T03:53:49;51.00;;;6.03;;
23754;SDS011;12057;52.042;6.830;2023-02-04T03:58:50;61.70;;;6.97;;
23754;SDS011;12057;52.042;6.830;2023-02-04T04:03:51;62.20;;;6.10;;
23754;SDS011;12057;52.042;6.830;2023-02-04T04:08:52;56.40;;;5.53;;
23754;SDS011;12057;52.042;6.830;2023-02-04T04:13:52;81.33;;;7.17;;
23754;SDS011;12057;52.042;6.830;2023-02-04T04:18:53;69.67;;;7.23;;
23754;SDS011;12057;52.042;6.830;2023-02-04T04:28:55;65.57;;;6.37;;
23754;SDS011;12057;52.042;6.830;2023-02-04T04:33:56;67.87;;;8.57;;
23754;SDS011;12057;52.042;6.830;2023-02-04T04:38:57;54.43;;;5.63;;
23754;SDS011;12057;52.042;6.830;2023-02-04T04:48:59;64.20;;;5.60;;
23754;SDS011;12057;52.042;6.830;2023-02-04T04:54:00;61.30;;;6.90;;
23754;SDS011;12057;52.042;6.830;2023-02-04T04:59:00;77.83;;;5.80;;
23754;SDS011;12057;52.042;6.830;2023-02-04T05:09:03;50.23;;;6.47;;
23754;SDS011;12057;52.042;6.830;2023-02-04T05:14:04;69.60;;;7.57;;
23754;SDS011;12057;52.042;6.830;2023-02-04T05:19:04;68.97;;;6.17;;
23754;SDS011;12057;52.042;6.830;2023-02-04T05:24:05;58.60;;;7.20;;
23754;SDS011;12057;52.042;6.830;2023-02-04T05:29:06;55.30;;;8.00;;
23754;SDS011;12057;52.042;6.830;2023-02-04T05:34:07;63.07;;;6.13;;
23754;SDS011;12057;52.042;6.830;2023-02-04T05:39:08;54.30;;;5.97;;
23754;SDS011;12057;52.042;6.830;2023-02-04T05:44:08;50.87;;;5.47;;
23754;SDS011;12057;52.042;6.830;2023-02-04T05:49:09;60.73;;;6.40;;
23754;SDS011;12057;52.042;6.830;2023-02-04T05:54:10;30.73;;;6.75;;
23754;SDS011;12057;52.042;6.830;2023-02-04T05:59:18;60.60;;;8.68;;
23754;SDS011;12057;52.042;6.830;2023-02-04T06:04:19;58.83;;;6.23;;
23754;SDS011;12057;52.042;6.830;2023-02-04T06:09:19;55.00;;;6.90;;
23754;SDS011;12057;52.042;6.830;2023-02-04T06:14:20;49.93;;;5.80;;
23754;SDS011;12057;52.042;6.830;2023-02-04T06:19:21;45.10;;;7.57;;
23754;SDS011;12057;52.042;6.830;2023-02-04T06:24:22;49.83;;;6.27;;
23754;SDS011;12057;52.042;6.830;2023-02-04T06:29:22;51.30;;;6.33;;
23754;SDS011;12057;52.042;6.830;2023-02-04T06:34:23;62.50;;;6.53;;
23754;SDS011;12057;52.042;6.830;2023-02-04T06:39:24;61.03;;;8.50;;
23754;SDS011;12057;52.042;6.830;2023-02-04T06:44:25;74.53;;;8.77;;
23754;SDS011;12057;52.042;6.830;2023-02-04T06:49:25;59.10;;;6.20;;
23754;SDS011;12057;52.042;6.830;2023-02-04T06:54:26;52.13;;;5.83;;
23754;SDS011;12057;52.042;6.830;2023-02-04T06:59:27;52.40;;;6.17;;
23754;SDS011;12057;52.042;6.830;2023-02-04T07:04:31;52.13;;;8.02;;
23754;SDS011;12057;52.042;6.830;2023-02-04T07:09:33;81.35;;;8.02;;
23754;SDS011;12057;52.042;6.830;2023-02-04T07:14:34;48.73;;;6.07;;
23754;SDS011;12057;52.042;6.830;2023-02-04T07:19:34;49.87;;;7.40;;
23754;SDS011;12057;52.042;6.830;2023-02-04T07:24:35;59.17;;;8.03;;
23754;SDS011;12057;52.042;6.830;2023-02-04T07:29:36;41.43;;;8.33;;
23754;SDS011;12057;52.042;6.830;2023-02-04T07:34:37;55.28;;;7.22;;
23754;SDS011;12057;52.042;6.830;2023-02-04T07:39:38;69.50;;;6.87;;
23754;SDS011;12057;52.042;6.830;2023-02-04T07:44:38;86.87;;;8.53;;
23754;SDS011;12057;52.042;6.830;2023-02-04T07:49:39;69.67;;;7.63;;
23754;SDS011;12057;52.042;6.830;2023-02-04T07:54:40;62.27;;;7.20;;
23754;SDS011;12057;52.042;6.830;2023-02-04T07:59:41;65.87;;;7.23;;
23754;SDS011;12057;52.042;6.830;2023-02-04T08:04:41;64.97;;;7.87;;
23754;SDS011;12057;52.042;6.830;2023-02-04T08:09:42;72.53;;;9.40;;
23754;SDS011;12057;52.042;6.830;2023-02-04T08:14:43;74.63;;;7.20;;
23754;SDS011;12057;52.042;6.830;2023-02-04T08:19:44;70.77;;;9.50;;
23754;SDS011;12057;52.042;6.830;2023-02-04T08:24:44;72.57;;;9.57;;
23754;SDS011;12057;52.042;6.830;2023-02-04T08:29:45;67.50;;;13.23;;
23754;SDS011;12057;52.042;6.830;2023-02-04T08:34:46;62.37;;;10.13;;
23754;SDS011;12057;52.042;6.830;2023-02-04T08:44:48;68.70;;;8.17;;
23754;SDS011;12057;52.042;6.830;2023-02-04T08:49:49;61.17;;;8.57;;
23754;SDS011;12057;52.042;6.830;2023-02-04T08:54:49;67.27;;;7.83;;
23754;SDS011;12057;52.042;6.830;2023-02-04T08:59:50;60.97;;;8.33;;
23754;SDS011;12057;52.042;6.830;2023-02-04T09:04:54;70.83;;;8.97;;
23754;SDS011;12057;52.042;6.830;2023-02-04T09:09:55;71.47;;;10.35;;
23754;SDS011;12057;52.042;6.830;2023-02-04T09:14:56;93.20;;;11.90;;
23754;SDS011;12057;52.042;6.830;2023-02-04T09:19:57;72.33;;;7.30;;
23754;SDS011;12057;52.042;6.830;2023-02-04T09:24:57;77.00;;;7.67;;
23754;SDS011;12057;52.042;6.830;2023-02-04T09:29:58;81.93;;;12.13;;
23754;SDS011;12057;52.042;6.830;2023-02-04T09:34:59;86.70;;;9.00;;
23754;SDS011;12057;52.042;6.830;2023-02-04T09:40:00;90.80;;;9.80;;
23754;SDS011;12057;52.042;6.830;2023-02-04T09:45:01;74.40;;;8.73;;
23754;SDS011;12057;52.042;6.830;2023-02-04T09:50:02;66.10;;;9.50;;
23754;SDS011;12057;52.042;6.830;2023-02-04T09:55:04;63.93;;;8.23;;
23754;SDS011;12057;52.042;6.830;2023-02-04T10:00:20;77.50;;;9.60;;
23754;SDS011;12057;52.042;6.830;2023-02-04T10:05:27;67.53;;;8.30;;
23754;SDS011;12057;52.042;6.830;2023-02-04T10:10:31;79.00;;;9.82;;
23754;SDS011;12057;52.042;6.830;2023-02-04T10:15:33;78.22;;;9.60;;
23754;SDS011;12057;52.042;6.830;2023-02-04T10:20:34;100.60;;;10.13;;
23754;SDS011;12057;52.042;6.830;2023-02-04T10:25:36;75.40;;;8.60;;
23754;SDS011;12057;52.042;6.830;2023-02-04T10:30:40;80.93;;;8.93;;
23754;SDS011;12057;52.042;6.830;2023-02-04T10:35:46;67.15;;;9.23;;
23754;SDS011;12057;52.042;6.830;2023-02-04T10:41:11;80.93;;;8.60;;
23754;SDS011;12057;52.042;6.830;2023-02-04T10:46:13;83.13;;;8.68;;
23754;SDS011;12057;52.042;6.830;2023-02-04T10:51:18;76.20;;;10.93;;
23754;SDS011;12057;52.042;6.830;2023-02-04T10:56:20;67.20;;;7.97;;
23754;SDS011;12057;52.042;6.830;2023-02-04T11:01:21;65.22;;;10.00;;
23754;SDS011;12057;52.042;6.830;2023-02-04T11:06:25;73.03;;;11.95;;
23754;SDS011;12057;52.042;6.830;2023-02-04T11:11:26;90.53;;;12.25;;
23754;SDS011;12057;52.042;6.830;2023-02-04T11:16:28;76.77;;;11.47;;
23754;SDS011;12057;52.042;6.830;2023-02-04T11:26:42;61.27;;;8.77;;
23754;SDS011;12057;52.042;6.830;2023-02-04T11:42:01;86.97;;;8.27;;
23754;SDS011;12057;52.042;6.830;2023-02-04T11:47:05;85.75;;;8.30;;
23754;SDS011;12057;52.042;6.830;2023-02-04T11:52:11;57.65;;;8.73;;
23754;SDS011;12057;52.042;6.830;2023-02-04T11:57:13;62.30;;;10.38;;
23754;SDS011;12057;52.042;6.830;2023-02-04T12:02:15;44.10;;;7.53;;
23754;SDS011;12057;52.042;6.830;2023-02-04T12:07:27;76.10;;;9.85;;
23754;SDS011;12057;52.042;6.830;2023-02-04T12:12:29;65.57;;;8.32;;
23754;SDS011;12057;52.042;6.830;2023-02-04T12:17:30;59.08;;;7.20;;
23754;SDS011;12057;52.042;6.830;2023-02-04T12:22:31;70.70;;;7.60;;
23754;SDS011;12057;52.042;6.830;2023-02-04T12:27:32;54.90;;;8.23;;
23754;SDS011;12057;52.042;6.830;2023-02-04T12:32:32;71.73;;;8.17;;
23754;SDS011;12057;52.042;6.830;2023-02-04T12:37:33;46.90;;;7.47;;
23754;SDS011;12057;52.042;6.830;2023-02-04T12:42:34;47.83;;;9.07;;
23754;SDS011;12057;52.042;6.830;2023-02-04T12:47:35;80.40;;;10.50;;
23754;SDS011;12057;52.042;6.830;2023-02-04T12:52:36;54.27;;;6.97;;
23754;SDS011;12057;52.042;6.830;2023-02-04T12:57:38;51.15;;;9.43;;
23754;SDS011;12057;52.042;6.830;2023-02-04T13:02:39;53.10;;;6.83;;
23754;SDS011;12057;52.042;6.830;2023-02-04T13:07:43;58.17;;;7.03;;
23754;SDS011;12057;52.042;6.830;2023-02-04T13:12:43;26.33;;;5.72;;
23754;SDS011;12057;52.042;6.830;2023-02-04T13:17:45;54.90;;;7.03;;
23754;SDS011;12057;52.042;6.830;2023-02-04T13:22:45;55.00;;;6.50;;
23754;SDS011;12057;52.042;6.830;2023-02-04T13:27:46;48.97;;;6.93;;
23754;SDS011;12057;52.042;6.830;2023-02-04T13:32:47;56.93;;;10.87;;
23754;SDS011;12057;52.042;6.830;2023-02-04T13:37:48;40.80;;;6.23;;
23754;SDS011;12057;52.042;6.830;2023-02-04T13:42:48;48.83;;;7.23;;
23754;SDS011;12057;52.042;6.830;2023-02-04T13:47:49;38.60;;;4.90;;
23754;SDS011;12057;52.042;6.830;2023-02-04T13:57:51;53.05;;;12.43;;
23754;SDS011;12057;52.042;6.830;2023-02-04T14:02:52;43.40;;;7.00;;
23754;SDS011;12057;52.042;6.830;2023-02-04T14:07:55;37.90;;;5.65;;
23754;SDS011;12057;52.042;6.830;2023-02-04T14:12:56;45.40;;;6.57;;
23754;SDS011;12057;52.042;6.830;2023-02-04T14:22:58;39.88;;;5.40;;
23754;SDS011;12057;52.042;6.830;2023-02-04T14:27:59;36.43;;;7.90;;
23754;SDS011;12057;52.042;6.830;2023-02-04T14:33:00;55.00;;;9.37;;
23754;SDS011;12057;52.042;6.830;2023-02-04T14:38:00;51.57;;;9.43;;
23754;SDS011;12057;52.042;6.830;2023-02-04T14:43:01;54.20;;;10.17;;
23754;SDS011;12057;52.042;6.830;2023-02-04T14:48:03;52.60;;;8.33;;
23754;SDS011;12057;52.042;6.830;2023-02-04T14:53:04;52.65;;;7.85;;
23754;SDS011;12057;52.042;6.830;2023-02-04T14:58:04;42.30;;;7.50;;
23754;SDS011;12057;52.042;6.830;2023-02-04T15:03:05;37.73;;;6.90;;
23754;SDS011;12057;52.042;6.830;2023-02-04T15:08:06;63.47;;;8.57;;
23754;SDS011;12057;52.042;6.830;2023-02-04T15:13:07;58.27;;;8.10;;
23754;SDS011;12057;52.042;6.830;2023-02-04T15:18:07;52.20;;;7.50;;
23754;SDS011;12057;52.042;6.830;2023-02-04T15:23:08;48.43;;;6.70;;
23754;SDS011;12057;52.042;6.830;2023-02-04T15:28:12;50.22;;;6.65;;
23754;SDS011;12057;52.042;6.830;2023-02-04T15:33:13;46.17;;;6.20;;
23754;SDS011;12057;52.042;6.830;2023-02-04T15:38:15;45.10;;;7.35;;
23754;SDS011;12057;52.042;6.830;2023-02-04T15:43:16;56.23;;;7.10;;
23754;SDS011;12057;52.042;6.830;2023-02-04T15:48:17;32.37;;;6.03;;
23754;SDS011;12057;52.042;6.830;2023-02-04T15:53:19;39.55;;;6.55;;
23754;SDS011;12057;52.042;6.830;2023-02-04T15:58:20;51.45;;;7.60;;
23754;SDS011;12057;52.042;6.830;2023-02-04T16:03:20;51.40;;;7.30;;
23754;SDS011;12057;52.042;6.830;2023-02-04T16:08:21;47.63;;;7.70;;
23754;SDS011;12057;52.042;6.830;2023-02-04T16:13:25;46.03;;;7.33;;
23754;SDS011;12057;52.042;6.830;2023-02-04T16:18:26;69.63;;;8.45;;
23754;SDS011;12057;52.042;6.830;2023-02-04T16:23:27;65.10;;;8.33;;
23754;SDS011;12057;52.042;6.830;2023-02-04T16:28:28;40.47;;;8.33;;
23754;SDS011;12057;52.042;6.830;2023-02-04T16:33:35;73.73;;;10.17;;
23754;SDS011;12057;52.042;6.830;2023-02-04T16:38:35;71.95;;;13.48;;
23754;SDS011;12057;52.042;6.830;2023-02-04T16:43:38;93.40;;;22.58;;
23754;SDS011;12057;52.042;6.830;2023-02-04T16:48:39;91.60;;;21.07;;
23754;SDS011;12057;52.042;6.830;2023-02-04T16:53:40;114.80;;;33.80;;
23754;SDS011;12057;52.042;6.830;2023-02-04T16:58:40;57.37;;;13.50;;
23754;SDS011;12057;52.042;6.830;2023-02-04T17:03:42;69.37;;;11.60;;
23754;SDS011;12057;52.042;6.830;2023-02-04T17:08:43;75.22;;;15.25;;
23754;SDS011;12057;52.042;6.830;2023-02-04T17:13:44;78.33;;;16.13;;
23754;SDS011;12057;52.042;6.830;2023-02-04T17:18:45;62.80;;;15.70;;
23754;SDS011;12057;52.042;6.830;2023-02-04T17:23:45;87.73;;;16.33;;
23754;SDS011;12057;52.042;6.830;2023-02-04T17:28:46;65.70;;;17.50;;
23754;SDS011;12057;52.042;6.830;2023-02-04T17:33:47;71.03;;;17.30;;
23754;SDS011;12057;52.042;6.830;2023-02-04T17:38:48;66.60;;;16.87;;
23754;SDS011;12057;52.042;6.830;2023-02-04T17:43:49;64.60;;;18.37;;
23754;SDS011;12057;52.042;6.830;2023-02-04T17:48:50;93.87;;;22.03;;
23754;SDS011;12057;52.042;6.830;2023-02-04T17:53:50;103.03;;;27.30;;
23754;SDS011;12057;52.042;6.830;2023-02-04T17:58:53;79.20;;;22.70;;
23754;SDS011;12057;52.042;6.830;2023-02-04T18:03:55;102.22;;;26.20;;
23754;SDS011;12057;52.042;6.830;2023-02-04T18:08:56;110.88;;;28.55;;
23754;SDS011;12057;52.042;6.830;2023-02-04T18:14:06;84.88;;;22.10;;
23754;SDS011;12057;52.042;6.830;2023-02-04T18:19:36;83.60;;;20.17;;
23754;SDS011;12057;52.042;6.830;2023-02-04T18:24:45;82.60;;;20.15;;
23754;SDS011;12057;52.042;6.830;2023-02-04T18:29:51;84.03;;;20.05;;
23754;SDS011;12057;52.042;6.830;2023-02-04T18:34:58;126.35;;;25.58;;
23754;SDS011;12057;52.042;6.830;2023-02-04T18:55:32;52.10;;;15.02;;
23754;SDS011;12057;52.042;6.830;2023-02-04T19:00:36;59.08;;;13.57;;
23754;SDS011;12057;52.042;6.830;2023-02-04T19:05:41;51.25;;;11.10;;
23754;SDS011;12057;52.042;6.830;2023-02-04T19:10:47;47.88;;;13.45;;
23754;SDS011;12057;52.042;6.830;2023-02-04T19:15:56;53.05;;;13.20;;
23754;SDS011;12057;52.042;6.830;2023-02-04T19:21:24;48.55;;;14.68;;
23754;SDS011;12057;52.042;6.830;2023-02-04T19:31:32;47.10;;;11.65;;
23754;SDS011;12057;52.042;6.830;2023-02-04T19:36:36;41.72;;;10.05;;
23754;SDS011;12057;52.042;6.830;2023-02-04T19:46:44;36.83;;;9.85;;
23754;SDS011;12057;52.042;6.830;2023-02-04T19:51:45;44.73;;;11.90;;
23754;SDS011;12057;52.042;6.830;2023-02-04T19:56:52;43.95;;;10.90;;
23754;SDS011;12057;52.042;6.830;2023-02-04T20:01:59;41.83;;;11.13;;
23754;SDS011;12057;52.042;6.830;2023-02-04T20:07:21;57.72;;;10.57;;
23754;SDS011;12057;52.042;6.830;2023-02-04T20:12:24;54.00;;;12.30;;
23754;SDS011;12057;52.042;6.830;2023-02-04T20:17:33;39.80;;;10.82;;
23754;SDS011;12057;52.042;6.830;2023-02-04T20:23:00;43.70;;;10.25;;
23754;SDS011;12057;52.042;6.830;2023-02-04T20:28:23;50.70;;;10.65;;
23754;SDS011;12057;52.042;6.830;2023-02-04T20:33:35;39.58;;;9.73;;
23754;SDS011;12057;52.042;6.830;2023-02-04T20:38:57;42.38;;;9.60;;
23754;SDS011;12057;52.042;6.830;2023-02-04T20:43:58;51.90;;;11.73;;
23754;SDS011;12057;52.042;6.830;2023-02-04T20:48:59;39.67;;;10.43;;
23754;SDS011;12057;52.042;6.830;2023-02-04T20:54:00;49.80;;;10.67;;
23754;SDS011;12057;52.042;6.830;2023-02-04T21:04:15;36.30;;;9.43;;
23754;SDS011;12057;52.042;6.830;2023-02-04T21:09:31;47.05;;;11.27;;
23754;SDS011;12057;52.042;6.830;2023-02-04T21:14:33;45.40;;;10.48;;
23754;SDS011;12057;52.042;6.830;2023-02-04T21:24:38;53.78;;;10.85;;
23754;SDS011;12057;52.042;6.830;2023-02-04T21:29:39;37.30;;;11.27;;
23754;SDS011;12057;52.042;6.830;2023-02-04T21:34:39;46.40;;;11.07;;
23754;SDS011;12057;52.042;6.830;2023-02-04T21:39:40;68.10;;;19.47;;
23754;SDS011;12057;52.042;6.830;2023-02-04T21:44:41;59.13;;;10.90;;
23754;SDS011;12057;52.042;6.830;2023-02-04T21:49:42;47.03;;;11.70;;
23754;SDS011;12057;52.042;6.830;2023-02-04T21:54:43;50.33;;;12.70;;
23754;SDS011;12057;52.042;6.830;2023-02-04T21:59:44;77.67;;;19.80;;
23754;SDS011;12057;52.042;6.830;2023-02-04T22:04:47;95.90;;;28.95;;
23754;SDS011;12057;52.042;6.830;2023-02-04T22:09:48;53.70;;;12.50;;
23754;SDS011;12057;52.042;6.830;2023-02-04T22:14:49;57.30;;;13.50;;
23754;SDS011;12057;52.042;6.830;2023-02-04T22:19:49;60.63;;;12.33;;
23754;SDS011;12057;52.042;6.830;2023-02-04T22:24:50;50.60;;;12.60;;
23754;SDS011;12057;52.042;6.830;2023-02-04T22:29:51;57.87;;;8.67;;
23754;SDS011;12057;52.042;6.830;2023-02-04T22:34:52;51.60;;;10.33;;
23754;SDS011;12057;52.042;6.830;2023-02-04T22:39:53;28.97;;;8.37;;
23754;SDS011;12057;52.042;6.830;2023-02-04T22:44:53;47.13;;;10.40;;
23754;SDS011;12057;52.042;6.830;2023-02-04T22:49:54;45.13;;;11.80;;
23754;SDS011;12057;52.042;6.830;2023-02-04T22:54:55;46.70;;;10.52;;
23754;SDS011;12057;52.042;6.830;2023-02-04T22:59:56;53.10;;;10.40;;
23754;SDS011;12057;52.042;6.830;2023-02-04T23:04:57;44.20;;;10.05;;
23754;SDS011;12057;52.042;6.830;2023-02-04T23:09:58;45.60;;;10.20;;
23754;SDS011;12057;52.042;6.830;2023-02-04T23:14:59;35.90;;;9.73;;
23754;SDS011;12057;52.042;6.830;2023-02-04T23:19:59;49.57;;;11.73;;
23754;SDS011;12057;52.042;6.830;2023-02-04T23:25:00;44.93;;;9.47;;
23754;SDS011;12057;52.042;6.830;2023-02-04T23:30:01;40.73;;;7.97;;
23754;SDS011;12057;52.042;6.830;2023-02-04T23:35:05;26.27;;;8.63;;
23754;SDS011;12057;52.042;6.830;2023-02-04T23:45:07;31.90;;;8.33;;
23754;SDS011;12057;52.042;6.830;2023-02-04T23:50:08;36.88;;;9.30;;
23754;SDS011;12057;52.042;6.830;2023-02-04T23:55:09;35.03;;;9.48;;
